sensor_id;sensor_type;location;lat;lon;timestamp;P1;durP1;ratioP1;P2;durP2;ratioP2
42104;SDS011;68365;51.472;5.712;2023-04-15T07:12:17;3.97;;;2.08;;
42104;SDS011;68365;51.472;5.712;2023-04-15T07:30:37;2.45;;;1.60;;
42104;SDS011;68365;51.472;5.712;2023-04-15T07:33:03;2.22;;;1.60;;
42104;SDS011;68365;51.472;5.712;2023-04-15T07:35:29;5.03;;;1.60;;
42104;SDS011;68365;51.472;5.712;2023-04-15T07:37:55;2.65;;;1.65;;
42104;SDS011;68365;51.472;5.712;2023-04-15T07:44:06;3.83;;;1.70;;
42104;SDS011;68365;51.472;5.712;2023-04-15T07:49:51;2.05;;;1.55;;
42104;SDS011;68365;51.472;5.712;2023-04-15T07:52:17;1.50;;;1.33;;
42104;SDS011;68365;51.472;5.712;2023-04-15T08:01:50;2.45;;;1.60;;
42104;SDS011;68365;51.472;5.712;2023-04-15T08:04:16;3.25;;;1.50;;
42104;SDS011;68365;51.472;5.712;2023-04-15T08:06:42;2.50;;;1.67;;
42104;SDS011;68365;51.472;5.712;2023-04-15T08:09:08;3.42;;;1.77;;
42104;SDS011;68365;51.472;5.712;2023-04-15T08:11:33;2.53;;;1.60;;
42104;SDS011;68365;51.472;5.712;2023-04-15T08:14:23;3.33;;;1.70;;
42104;SDS011;68365;51.472;5.712;2023-04-15T08:21:21;2.33;;;1.50;;
42104;SDS011;68365;51.472;5.712;2023-04-15T08:27:05;2.97;;;1.80;;
42104;SDS011;68365;51.472;5.712;2023-04-15T08:32:23;3.80;;;1.77;;
42104;SDS011;68365;51.472;5.712;2023-04-15T08:34:50;2.53;;;1.80;;
42104;SDS011;68365;51.472;5.712;2023-04-15T08:37:19;3.70;;;1.63;;
42104;SDS011;68365;51.472;5.712;2023-04-15T08:39:49;3.42;;;1.80;;
42104;SDS011;68365;51.472;5.712;2023-04-15T08:42:43;4.47;;;1.55;;
42104;SDS011;68365;51.472;5.712;2023-04-15T08:45:33;2.85;;;1.60;;
42104;SDS011;68365;51.472;5.712;2023-04-15T08:48:04;2.47;;;1.75;;
42104;SDS011;68365;51.472;5.712;2023-04-15T08:50:41;2.60;;;1.77;;
42104;SDS011;68365;51.472;5.712;2023-04-15T08:53:10;3.50;;;1.73;;
42104;SDS011;68365;51.472;5.712;2023-04-15T08:55:38;2.92;;;1.70;;
42104;SDS011;68365;51.472;5.712;2023-04-15T08:58:11;2.83;;;1.65;;
42104;SDS011;68365;51.472;5.712;2023-04-15T09:00:38;3.53;;;1.90;;
42104;SDS011;68365;51.472;5.712;2023-04-15T09:03:15;4.20;;;1.63;;
42104;SDS011;68365;51.472;5.712;2023-04-15T09:05:41;4.47;;;1.90;;
42104;SDS011;68365;51.472;5.712;2023-04-15T09:08:08;5.45;;;1.80;;
42104;SDS011;68365;51.472;5.712;2023-04-15T09:10:34;2.85;;;1.83;;
42104;SDS011;68365;51.472;5.712;2023-04-15T09:13:00;2.15;;;1.80;;
42104;SDS011;68365;51.472;5.712;2023-04-15T09:15:26;2.25;;;1.77;;
42104;SDS011;68365;51.472;5.712;2023-04-15T09:17:54;3.60;;;1.83;;
42104;SDS011;68365;51.472;5.712;2023-04-15T09:20:20;4.70;;;1.92;;
42104;SDS011;68365;51.472;5.712;2023-04-15T09:22:49;2.33;;;1.63;;
42104;SDS011;68365;51.472;5.712;2023-04-15T09:30:26;2.67;;;1.98;;
42104;SDS011;68365;51.472;5.712;2023-04-15T09:33:00;3.10;;;1.83;;
42104;SDS011;68365;51.472;5.712;2023-04-15T09:35:35;4.43;;;2.22;;
42104;SDS011;68365;51.472;5.712;2023-04-15T09:38:05;4.40;;;2.38;;
42104;SDS011;68365;51.472;5.712;2023-04-15T09:40:34;2.95;;;2.38;;
42104;SDS011;68365;51.472;5.712;2023-04-15T09:43:05;4.35;;;2.55;;
42104;SDS011;68365;51.472;5.712;2023-04-15T09:45:33;5.50;;;3.15;;
42104;SDS011;68365;51.472;5.712;2023-04-15T09:50:51;7.25;;;2.95;;
42104;SDS011;68365;51.472;5.712;2023-04-15T09:53:21;2.60;;;2.40;;
42104;SDS011;68365;51.472;5.712;2023-04-15T09:55:49;5.47;;;3.10;;
42104;SDS011;68365;51.472;5.712;2023-04-15T09:58:22;3.58;;;2.58;;
42104;SDS011;68365;51.472;5.712;2023-04-15T10:00:53;5.07;;;2.28;;
42104;SDS011;68365;51.472;5.712;2023-04-15T10:03:22;2.72;;;1.92;;
42104;SDS011;68365;51.472;5.712;2023-04-15T10:05:53;3.08;;;2.10;;
42104;SDS011;68365;51.472;5.712;2023-04-15T10:08:22;4.22;;;2.35;;
42104;SDS011;68365;51.472;5.712;2023-04-15T10:10:50;3.88;;;1.95;;
42104;SDS011;68365;51.472;5.712;2023-04-15T10:13:20;7.10;;;2.42;;
42104;SDS011;68365;51.472;5.712;2023-04-15T10:18:45;5.63;;;2.30;;
42104;SDS011;68365;51.472;5.712;2023-04-15T10:21:15;4.90;;;2.03;;
42104;SDS011;68365;51.472;5.712;2023-04-15T10:23:43;4.28;;;1.90;;
42104;SDS011;68365;51.472;5.712;2023-04-15T10:26:10;8.20;;;2.13;;
42104;SDS011;68365;51.472;5.712;2023-04-15T10:28:38;3.28;;;2.08;;
42104;SDS011;68365;51.472;5.712;2023-04-15T10:31:05;5.93;;;1.80;;
42104;SDS011;68365;51.472;5.712;2023-04-15T10:33:31;3.80;;;2.00;;
42104;SDS011;68365;51.472;5.712;2023-04-15T10:35:59;5.63;;;1.90;;
42104;SDS011;68365;51.472;5.712;2023-04-15T10:41:16;3.45;;;2.10;;
42104;SDS011;68365;51.472;5.712;2023-04-15T10:46:35;4.35;;;2.00;;
42104;SDS011;68365;51.472;5.712;2023-04-15T10:49:11;6.80;;;2.13;;
42104;SDS011;68365;51.472;5.712;2023-04-15T10:52:06;4.50;;;2.10;;
42104;SDS011;68365;51.472;5.712;2023-04-15T10:54:32;4.63;;;2.05;;
42104;SDS011;68365;51.472;5.712;2023-04-15T10:59:29;3.63;;;1.65;;
42104;SDS011;68365;51.472;5.712;2023-04-15T11:01:59;4.25;;;1.80;;
42104;SDS011;68365;51.472;5.712;2023-04-15T11:12:46;4.35;;;1.85;;
42104;SDS011;68365;51.472;5.712;2023-04-15T11:18:15;5.55;;;2.33;;
42104;SDS011;68365;51.472;5.712;2023-04-15T11:20:43;5.00;;;2.10;;
42104;SDS011;68365;51.472;5.712;2023-04-15T11:23:10;4.25;;;2.10;;
42104;SDS011;68365;51.472;5.712;2023-04-15T11:25:37;5.18;;;2.10;;
42104;SDS011;68365;51.472;5.712;2023-04-15T11:28:03;6.88;;;1.90;;
42104;SDS011;68365;51.472;5.712;2023-04-15T11:30:32;4.68;;;2.20;;
42104;SDS011;68365;51.472;5.712;2023-04-15T11:33:02;5.60;;;2.30;;
42104;SDS011;68365;51.472;5.712;2023-04-15T11:35:31;5.28;;;2.03;;
42104;SDS011;68365;51.472;5.712;2023-04-15T11:37:57;7.32;;;2.38;;
42104;SDS011;68365;51.472;5.712;2023-04-15T11:40:27;4.18;;;2.20;;
42104;SDS011;68365;51.472;5.712;2023-04-15T11:43:07;5.45;;;2.25;;
42104;SDS011;68365;51.472;5.712;2023-04-15T11:45:53;7.95;;;2.22;;
42104;SDS011;68365;51.472;5.712;2023-04-15T11:48:28;5.22;;;2.60;;
42104;SDS011;68365;51.472;5.712;2023-04-15T11:53:39;5.47;;;2.10;;
42104;SDS011;68365;51.472;5.712;2023-04-15T11:56:16;5.30;;;2.22;;
42104;SDS011;68365;51.472;5.712;2023-04-15T11:58:45;6.85;;;2.20;;
42104;SDS011;68365;51.472;5.712;2023-04-15T12:01:11;4.60;;;1.98;;
42104;SDS011;68365;51.472;5.712;2023-04-15T12:03:41;3.33;;;2.10;;
42104;SDS011;68365;51.472;5.712;2023-04-15T12:06:14;4.95;;;2.05;;
42104;SDS011;68365;51.472;5.712;2023-04-15T12:14:26;3.45;;;2.22;;
42104;SDS011;68365;51.472;5.712;2023-04-15T12:16:56;3.15;;;1.95;;
42104;SDS011;68365;51.472;5.712;2023-04-15T12:19:28;4.68;;;2.03;;
42104;SDS011;68365;51.472;5.712;2023-04-15T12:22:08;5.60;;;2.30;;
42104;SDS011;68365;51.472;5.712;2023-04-15T12:24:40;5.05;;;2.17;;
42104;SDS011;68365;51.472;5.712;2023-04-15T12:27:14;3.45;;;2.30;;
42104;SDS011;68365;51.472;5.712;2023-04-15T12:29:41;7.30;;;2.28;;
42104;SDS011;68365;51.472;5.712;2023-04-15T12:32:11;4.85;;;2.40;;
42104;SDS011;68365;51.472;5.712;2023-04-15T12:34:46;4.13;;;2.17;;
42104;SDS011;68365;51.472;5.712;2023-04-15T12:37:15;4.22;;;2.05;;
42104;SDS011;68365;51.472;5.712;2023-04-15T12:39:42;3.08;;;1.98;;
42104;SDS011;68365;51.472;5.712;2023-04-15T12:42:10;4.47;;;2.13;;
42104;SDS011;68365;51.472;5.712;2023-04-15T12:44:36;4.40;;;2.08;;
42104;SDS011;68365;51.472;5.712;2023-04-15T12:47:03;5.45;;;2.20;;
42104;SDS011;68365;51.472;5.712;2023-04-15T12:49:29;4.57;;;2.35;;
42104;SDS011;68365;51.472;5.712;2023-04-15T12:51:57;3.22;;;2.00;;
42104;SDS011;68365;51.472;5.712;2023-04-15T12:54:24;4.70;;;2.60;;
42104;SDS011;68365;51.472;5.712;2023-04-15T12:56:51;6.25;;;2.53;;
42104;SDS011;68365;51.472;5.712;2023-04-15T12:59:18;4.57;;;2.20;;
42104;SDS011;68365;51.472;5.712;2023-04-15T13:01:45;3.75;;;2.30;;
42104;SDS011;68365;51.472;5.712;2023-04-15T13:04:12;3.90;;;2.13;;
42104;SDS011;68365;51.472;5.712;2023-04-15T13:06:39;8.68;;;2.97;;
42104;SDS011;68365;51.472;5.712;2023-04-15T13:09:05;4.43;;;2.33;;
42104;SDS011;68365;51.472;5.712;2023-04-15T13:11:31;4.32;;;2.28;;
42104;SDS011;68365;51.472;5.712;2023-04-15T13:14:03;3.78;;;2.10;;
42104;SDS011;68365;51.472;5.712;2023-04-15T13:16:31;2.70;;;1.90;;
42104;SDS011;68365;51.472;5.712;2023-04-15T13:18:58;5.30;;;1.98;;
42104;SDS011;68365;51.472;5.712;2023-04-15T13:21:25;2.92;;;2.05;;
42104;SDS011;68365;51.472;5.712;2023-04-15T13:23:51;3.28;;;2.30;;
42104;SDS011;68365;51.472;5.712;2023-04-15T13:26:18;4.18;;;2.50;;
42104;SDS011;68365;51.472;5.712;2023-04-15T13:28:44;3.20;;;2.05;;
42104;SDS011;68365;51.472;5.712;2023-04-15T13:31:10;4.40;;;2.22;;
42104;SDS011;68365;51.472;5.712;2023-04-15T13:33:36;3.85;;;2.15;;
42104;SDS011;68365;51.472;5.712;2023-04-15T13:36:02;5.40;;;2.30;;
42104;SDS011;68365;51.472;5.712;2023-04-15T13:38:28;6.00;;;2.20;;
42104;SDS011;68365;51.472;5.712;2023-04-15T13:40:54;7.82;;;2.33;;
42104;SDS011;68365;51.472;5.712;2023-04-15T13:43:20;4.78;;;2.30;;
42104;SDS011;68365;51.472;5.712;2023-04-15T13:45:46;5.47;;;2.35;;
42104;SDS011;68365;51.472;5.712;2023-04-15T13:48:12;5.35;;;2.13;;
42104;SDS011;68365;51.472;5.712;2023-04-15T13:50:38;2.60;;;1.90;;
42104;SDS011;68365;51.472;5.712;2023-04-15T13:53:09;3.30;;;2.28;;
42104;SDS011;68365;51.472;5.712;2023-04-15T13:55:36;5.28;;;2.15;;
42104;SDS011;68365;51.472;5.712;2023-04-15T13:58:05;10.55;;;2.10;;
42104;SDS011;68365;51.472;5.712;2023-04-15T14:00:35;3.05;;;1.83;;
42104;SDS011;68365;51.472;5.712;2023-04-15T14:03:01;2.78;;;2.15;;
42104;SDS011;68365;51.472;5.712;2023-04-15T14:05:27;3.05;;;2.17;;
42104;SDS011;68365;51.472;5.712;2023-04-15T14:07:53;4.13;;;2.45;;
42104;SDS011;68365;51.472;5.712;2023-04-15T14:10:18;4.65;;;2.40;;
42104;SDS011;68365;51.472;5.712;2023-04-15T14:12:44;6.65;;;2.30;;
42104;SDS011;68365;51.472;5.712;2023-04-15T14:15:10;3.05;;;2.13;;
42104;SDS011;68365;51.472;5.712;2023-04-15T14:17:36;4.10;;;2.45;;
42104;SDS011;68365;51.472;5.712;2023-04-15T14:20:02;3.28;;;2.20;;
42104;SDS011;68365;51.472;5.712;2023-04-15T14:22:31;4.35;;;2.30;;
42104;SDS011;68365;51.472;5.712;2023-04-15T14:24:57;2.38;;;2.08;;
42104;SDS011;68365;51.472;5.712;2023-04-15T14:27:23;4.53;;;2.10;;
42104;SDS011;68365;51.472;5.712;2023-04-15T14:29:51;3.88;;;1.98;;
42104;SDS011;68365;51.472;5.712;2023-04-15T14:32:18;3.15;;;1.80;;
42104;SDS011;68365;51.472;5.712;2023-04-15T14:34:44;4.40;;;2.13;;
42104;SDS011;68365;51.472;5.712;2023-04-15T14:37:10;3.97;;;1.80;;
42104;SDS011;68365;51.472;5.712;2023-04-15T14:39:36;4.63;;;1.90;;
42104;SDS011;68365;51.472;5.712;2023-04-15T14:42:01;5.10;;;1.92;;
42104;SDS011;68365;51.472;5.712;2023-04-15T14:44:27;4.35;;;2.58;;
42104;SDS011;68365;51.472;5.712;2023-04-15T14:46:53;2.08;;;1.88;;
42104;SDS011;68365;51.472;5.712;2023-04-15T14:49:19;3.83;;;2.03;;
42104;SDS011;68365;51.472;5.712;2023-04-15T14:51:45;4.57;;;2.40;;
42104;SDS011;68365;51.472;5.712;2023-04-15T14:54:11;4.90;;;2.17;;
42104;SDS011;68365;51.472;5.712;2023-04-15T14:56:37;4.90;;;2.00;;
42104;SDS011;68365;51.472;5.712;2023-04-15T14:59:03;2.67;;;1.98;;
42104;SDS011;68365;51.472;5.712;2023-04-15T15:01:28;4.90;;;2.40;;
42104;SDS011;68365;51.472;5.712;2023-04-15T15:03:54;2.70;;;2.00;;
42104;SDS011;68365;51.472;5.712;2023-04-15T15:06:20;3.15;;;2.25;;
42104;SDS011;68365;51.472;5.712;2023-04-15T15:08:47;2.90;;;1.90;;
42104;SDS011;68365;51.472;5.712;2023-04-15T15:11:14;3.53;;;1.77;;
42104;SDS011;68365;51.472;5.712;2023-04-15T15:13:40;4.88;;;1.83;;
42104;SDS011;68365;51.472;5.712;2023-04-15T15:16:06;3.05;;;2.22;;
42104;SDS011;68365;51.472;5.712;2023-04-15T15:18:33;5.47;;;2.00;;
42104;SDS011;68365;51.472;5.712;2023-04-15T15:21:00;2.50;;;1.95;;
42104;SDS011;68365;51.472;5.712;2023-04-15T15:23:26;4.93;;;2.20;;
42104;SDS011;68365;51.472;5.712;2023-04-15T15:25:52;5.28;;;2.10;;
42104;SDS011;68365;51.472;5.712;2023-04-15T15:28:17;3.92;;;2.00;;
42104;SDS011;68365;51.472;5.712;2023-04-15T15:30:43;4.55;;;1.90;;
42104;SDS011;68365;51.472;5.712;2023-04-15T15:33:09;7.45;;;2.00;;
42104;SDS011;68365;51.472;5.712;2023-04-15T15:35:35;4.47;;;1.90;;
42104;SDS011;68365;51.472;5.712;2023-04-15T15:38:01;4.63;;;1.80;;
42104;SDS011;68365;51.472;5.712;2023-04-15T15:40:27;4.90;;;1.98;;
42104;SDS011;68365;51.472;5.712;2023-04-15T15:42:53;3.60;;;1.92;;
42104;SDS011;68365;51.472;5.712;2023-04-15T15:45:19;4.35;;;2.15;;
42104;SDS011;68365;51.472;5.712;2023-04-15T15:47:45;6.28;;;2.60;;
42104;SDS011;68365;51.472;5.712;2023-04-15T15:50:12;2.70;;;1.83;;
42104;SDS011;68365;51.472;5.712;2023-04-15T15:52:38;5.40;;;2.10;;
42104;SDS011;68365;51.472;5.712;2023-04-15T15:55:04;3.40;;;1.88;;
42104;SDS011;68365;51.472;5.712;2023-04-15T15:57:31;2.63;;;1.92;;
42104;SDS011;68365;51.472;5.712;2023-04-15T15:59:57;3.65;;;1.65;;
42104;SDS011;68365;51.472;5.712;2023-04-15T16:02:22;4.78;;;1.75;;
42104;SDS011;68365;51.472;5.712;2023-04-15T16:04:48;2.88;;;2.00;;
42104;SDS011;68365;51.472;5.712;2023-04-15T16:07:16;3.20;;;2.08;;
42104;SDS011;68365;51.472;5.712;2023-04-15T16:09:42;2.25;;;1.77;;
42104;SDS011;68365;51.472;5.712;2023-04-15T16:12:08;3.10;;;1.80;;
42104;SDS011;68365;51.472;5.712;2023-04-15T16:14:34;5.22;;;1.90;;
42104;SDS011;68365;51.472;5.712;2023-04-15T16:17:00;4.78;;;1.90;;
42104;SDS011;68365;51.472;5.712;2023-04-15T16:19:26;3.72;;;2.05;;
42104;SDS011;68365;51.472;5.712;2023-04-15T16:21:52;4.22;;;1.80;;
42104;SDS011;68365;51.472;5.712;2023-04-15T16:24:18;3.80;;;1.70;;
42104;SDS011;68365;51.472;5.712;2023-04-15T16:26:43;4.80;;;2.10;;
42104;SDS011;68365;51.472;5.712;2023-04-15T16:29:09;6.03;;;2.05;;
42104;SDS011;68365;51.472;5.712;2023-04-15T16:31:35;3.40;;;1.75;;
42104;SDS011;68365;51.472;5.712;2023-04-15T16:34:03;3.22;;;2.00;;
42104;SDS011;68365;51.472;5.712;2023-04-15T16:36:30;3.00;;;2.00;;
42104;SDS011;68365;51.472;5.712;2023-04-15T16:38:58;4.60;;;1.90;;
42104;SDS011;68365;51.472;5.712;2023-04-15T16:41:24;2.88;;;1.83;;
42104;SDS011;68365;51.472;5.712;2023-04-15T16:43:50;3.58;;;1.92;;
42104;SDS011;68365;51.472;5.712;2023-04-15T16:46:16;3.90;;;2.05;;
42104;SDS011;68365;51.472;5.712;2023-04-15T16:48:41;4.57;;;2.38;;
42104;SDS011;68365;51.472;5.712;2023-04-15T16:51:07;4.97;;;2.60;;
42104;SDS011;68365;51.472;5.712;2023-04-15T16:53:33;5.85;;;2.90;;
42104;SDS011;68365;51.472;5.712;2023-04-15T16:55:59;3.42;;;2.75;;
42104;SDS011;68365;51.472;5.712;2023-04-15T16:58:25;4.82;;;3.28;;
42104;SDS011;68365;51.472;5.712;2023-04-15T17:00:52;7.35;;;4.15;;
42104;SDS011;68365;51.472;5.712;2023-04-15T17:03:18;11.65;;;4.10;;
42104;SDS011;68365;51.472;5.712;2023-04-15T17:05:44;12.77;;;5.70;;
42104;SDS011;68365;51.472;5.712;2023-04-15T17:08:10;15.82;;;6.13;;
42104;SDS011;68365;51.472;5.712;2023-04-15T17:10:36;10.88;;;4.63;;
42104;SDS011;68365;51.472;5.712;2023-04-15T17:13:02;11.02;;;4.72;;
42104;SDS011;68365;51.472;5.712;2023-04-15T17:15:27;9.48;;;4.90;;
42104;SDS011;68365;51.472;5.712;2023-04-15T17:17:53;13.32;;;4.82;;
42104;SDS011;68365;51.472;5.712;2023-04-15T17:20:19;9.35;;;5.18;;
42104;SDS011;68365;51.472;5.712;2023-04-15T17:22:46;10.10;;;4.68;;
42104;SDS011;68365;51.472;5.712;2023-04-15T17:25:12;13.30;;;4.45;;
42104;SDS011;68365;51.472;5.712;2023-04-15T17:27:39;12.40;;;4.35;;
42104;SDS011;68365;51.472;5.712;2023-04-15T17:30:05;8.93;;;4.57;;
42104;SDS011;68365;51.472;5.712;2023-04-15T17:32:33;7.82;;;4.38;;
42104;SDS011;68365;51.472;5.712;2023-04-15T17:35:00;8.77;;;4.18;;
42104;SDS011;68365;51.472;5.712;2023-04-15T17:37:29;9.52;;;4.05;;
42104;SDS011;68365;51.472;5.712;2023-04-15T17:39:57;9.98;;;4.40;;
42104;SDS011;68365;51.472;5.712;2023-04-15T17:42:23;10.05;;;3.80;;
42104;SDS011;68365;51.472;5.712;2023-04-15T17:44:48;11.02;;;3.80;;
42104;SDS011;68365;51.472;5.712;2023-04-15T17:47:14;10.02;;;4.38;;
42104;SDS011;68365;51.472;5.712;2023-04-15T17:49:41;9.70;;;4.22;;
42104;SDS011;68365;51.472;5.712;2023-04-15T17:52:07;11.77;;;4.00;;
42104;SDS011;68365;51.472;5.712;2023-04-15T17:54:33;8.45;;;3.70;;
42104;SDS011;68365;51.472;5.712;2023-04-15T17:56:59;6.75;;;3.50;;
42104;SDS011;68365;51.472;5.712;2023-04-15T17:59:27;9.77;;;3.78;;
42104;SDS011;68365;51.472;5.712;2023-04-15T18:01:53;7.32;;;3.40;;
42104;SDS011;68365;51.472;5.712;2023-04-15T18:04:19;11.25;;;4.32;;
42104;SDS011;68365;51.472;5.712;2023-04-15T18:06:45;7.35;;;3.60;;
42104;SDS011;68365;51.472;5.712;2023-04-15T18:09:11;10.90;;;4.28;;
42104;SDS011;68365;51.472;5.712;2023-04-15T18:11:37;7.68;;;3.55;;
42104;SDS011;68365;51.472;5.712;2023-04-15T18:14:04;8.48;;;3.50;;
42104;SDS011;68365;51.472;5.712;2023-04-15T18:16:30;8.13;;;3.60;;
42104;SDS011;68365;51.472;5.712;2023-04-15T18:18:56;9.63;;;3.33;;
42104;SDS011;68365;51.472;5.712;2023-04-15T18:21:22;6.57;;;3.20;;
42104;SDS011;68365;51.472;5.712;2023-04-15T18:23:48;7.80;;;3.33;;
42104;SDS011;68365;51.472;5.712;2023-04-15T18:26:13;5.93;;;3.22;;
42104;SDS011;68365;51.472;5.712;2023-04-15T18:28:39;6.57;;;2.97;;
42104;SDS011;68365;51.472;5.712;2023-04-15T18:31:05;6.13;;;3.05;;
42104;SDS011;68365;51.472;5.712;2023-04-15T18:33:31;7.25;;;3.30;;
42104;SDS011;68365;51.472;5.712;2023-04-15T18:35:57;5.22;;;3.00;;
42104;SDS011;68365;51.472;5.712;2023-04-15T18:38:23;6.00;;;3.33;;
42104;SDS011;68365;51.472;5.712;2023-04-15T18:40:48;6.20;;;3.35;;
42104;SDS011;68365;51.472;5.712;2023-04-15T18:43:14;7.63;;;3.20;;
42104;SDS011;68365;51.472;5.712;2023-04-15T18:45:40;7.43;;;2.83;;
42104;SDS011;68365;51.472;5.712;2023-04-15T18:48:06;7.65;;;3.00;;
42104;SDS011;68365;51.472;5.712;2023-04-15T18:50:35;6.63;;;3.28;;
42104;SDS011;68365;51.472;5.712;2023-04-15T18:53:01;7.40;;;3.05;;
42104;SDS011;68365;51.472;5.712;2023-04-15T18:55:27;6.13;;;2.80;;
42104;SDS011;68365;51.472;5.712;2023-04-15T18:57:53;4.80;;;2.83;;
42104;SDS011;68365;51.472;5.712;2023-04-15T19:00:19;6.70;;;2.78;;
42104;SDS011;68365;51.472;5.712;2023-04-15T19:02:45;6.57;;;2.80;;
42104;SDS011;68365;51.472;5.712;2023-04-15T19:05:11;6.13;;;3.13;;
42104;SDS011;68365;51.472;5.712;2023-04-15T19:07:37;6.93;;;3.00;;
42104;SDS011;68365;51.472;5.712;2023-04-15T19:10:03;7.97;;;2.85;;
42104;SDS011;68365;51.472;5.712;2023-04-15T19:12:30;9.88;;;3.50;;
42104;SDS011;68365;51.472;5.712;2023-04-15T19:14:56;5.85;;;3.00;;
42104;SDS011;68365;51.472;5.712;2023-04-15T19:17:21;5.93;;;2.80;;
42104;SDS011;68365;51.472;5.712;2023-04-15T19:19:47;6.70;;;2.63;;
42104;SDS011;68365;51.472;5.712;2023-04-15T19:22:13;4.00;;;2.42;;
42104;SDS011;68365;51.472;5.712;2023-04-15T19:24:40;6.47;;;2.58;;
42104;SDS011;68365;51.472;5.712;2023-04-15T19:27:06;7.60;;;2.85;;
42104;SDS011;68365;51.472;5.712;2023-04-15T19:29:32;6.72;;;2.83;;
42104;SDS011;68365;51.472;5.712;2023-04-15T19:31:58;8.13;;;2.60;;
42104;SDS011;68365;51.472;5.712;2023-04-15T19:34:24;6.35;;;2.50;;
42104;SDS011;68365;51.472;5.712;2023-04-15T19:36:49;5.82;;;2.80;;
42104;SDS011;68365;51.472;5.712;2023-04-15T19:39:16;5.97;;;2.78;;
42104;SDS011;68365;51.472;5.712;2023-04-15T19:41:42;4.93;;;2.50;;
42104;SDS011;68365;51.472;5.712;2023-04-15T19:44:08;4.40;;;2.50;;
42104;SDS011;68365;51.472;5.712;2023-04-15T19:46:37;4.38;;;2.33;;
42104;SDS011;68365;51.472;5.712;2023-04-15T19:49:04;4.82;;;2.63;;
42104;SDS011;68365;51.472;5.712;2023-04-15T19:51:30;6.25;;;2.70;;
42104;SDS011;68365;51.472;5.712;2023-04-15T19:53:56;5.82;;;2.70;;
42104;SDS011;68365;51.472;5.712;2023-04-15T19:56:23;5.93;;;2.42;;
42104;SDS011;68365;51.472;5.712;2023-04-15T19:58:49;7.03;;;2.70;;
42104;SDS011;68365;51.472;5.712;2023-04-15T20:01:20;3.45;;;2.08;;
42104;SDS011;68365;51.472;5.712;2023-04-15T20:03:46;5.72;;;2.55;;
42104;SDS011;68365;51.472;5.712;2023-04-15T20:06:13;6.93;;;2.42;;
42104;SDS011;68365;51.472;5.712;2023-04-15T20:08:39;5.93;;;2.53;;
42104;SDS011;68365;51.472;5.712;2023-04-15T20:11:07;4.65;;;2.30;;
42104;SDS011;68365;51.472;5.712;2023-04-15T20:13:34;4.63;;;2.70;;
42104;SDS011;68365;51.472;5.712;2023-04-15T20:16:00;4.40;;;2.28;;
42104;SDS011;68365;51.472;5.712;2023-04-15T20:18:26;5.00;;;2.00;;
42104;SDS011;68365;51.472;5.712;2023-04-15T20:20:52;5.10;;;2.25;;
42104;SDS011;68365;51.472;5.712;2023-04-15T20:23:18;4.05;;;2.22;;
42104;SDS011;68365;51.472;5.712;2023-04-15T20:25:44;6.80;;;2.45;;
42104;SDS011;68365;51.472;5.712;2023-04-15T20:28:10;5.95;;;2.00;;
42104;SDS011;68365;51.472;5.712;2023-04-15T20:30:36;7.20;;;2.17;;
42104;SDS011;68365;51.472;5.712;2023-04-15T20:33:03;4.32;;;1.92;;
42104;SDS011;68365;51.472;5.712;2023-04-15T20:35:31;3.30;;;2.20;;
42104;SDS011;68365;51.472;5.712;2023-04-15T20:37:58;5.68;;;2.65;;
42104;SDS011;68365;51.472;5.712;2023-04-15T20:40:24;4.05;;;2.10;;
42104;SDS011;68365;51.472;5.712;2023-04-15T20:42:50;4.68;;;2.38;;
42104;SDS011;68365;51.472;5.712;2023-04-15T20:45:16;5.90;;;2.03;;
42104;SDS011;68365;51.472;5.712;2023-04-15T20:47:42;3.45;;;2.20;;
42104;SDS011;68365;51.472;5.712;2023-04-15T20:50:08;6.78;;;2.40;;
42104;SDS011;68365;51.472;5.712;2023-04-15T20:52:34;6.07;;;2.50;;
42104;SDS011;68365;51.472;5.712;2023-04-15T20:55:00;4.18;;;2.08;;
42104;SDS011;68365;51.472;5.712;2023-04-15T20:57:26;4.63;;;2.00;;
42104;SDS011;68365;51.472;5.712;2023-04-15T20:59:54;5.07;;;2.40;;
42104;SDS011;68365;51.472;5.712;2023-04-15T21:02:21;4.35;;;2.10;;
42104;SDS011;68365;51.472;5.712;2023-04-15T21:04:47;6.05;;;2.25;;
42104;SDS011;68365;51.472;5.712;2023-04-15T21:07:13;3.70;;;2.03;;
42104;SDS011;68365;51.472;5.712;2023-04-15T21:09:39;5.03;;;2.30;;
42104;SDS011;68365;51.472;5.712;2023-04-15T21:12:07;5.70;;;2.20;;
42104;SDS011;68365;51.472;5.712;2023-04-15T21:14:35;4.53;;;2.25;;
42104;SDS011;68365;51.472;5.712;2023-04-15T21:17:01;5.45;;;2.35;;
42104;SDS011;68365;51.472;5.712;2023-04-15T21:19:31;3.38;;;2.03;;
42104;SDS011;68365;51.472;5.712;2023-04-15T21:21:57;5.30;;;2.00;;
42104;SDS011;68365;51.472;5.712;2023-04-15T21:24:24;4.00;;;2.15;;
42104;SDS011;68365;51.472;5.712;2023-04-15T21:26:50;3.45;;;2.03;;
42104;SDS011;68365;51.472;5.712;2023-04-15T21:29:16;6.47;;;2.00;;
42104;SDS011;68365;51.472;5.712;2023-04-15T21:31:41;3.55;;;2.05;;
42104;SDS011;68365;51.472;5.712;2023-04-15T21:34:07;5.07;;;2.20;;
42104;SDS011;68365;51.472;5.712;2023-04-15T21:36:34;4.40;;;2.17;;
42104;SDS011;68365;51.472;5.712;2023-04-15T21:39:01;4.05;;;1.85;;
42104;SDS011;68365;51.472;5.712;2023-04-15T21:41:27;2.97;;;1.70;;
42104;SDS011;68365;51.472;5.712;2023-04-15T21:43:53;4.97;;;1.90;;
42104;SDS011;68365;51.472;5.712;2023-04-15T21:46:19;4.75;;;2.00;;
42104;SDS011;68365;51.472;5.712;2023-04-15T21:48:45;3.13;;;1.90;;
42104;SDS011;68365;51.472;5.712;2023-04-15T21:51:11;3.13;;;1.75;;
42104;SDS011;68365;51.472;5.712;2023-04-15T21:53:37;5.07;;;2.00;;
42104;SDS011;68365;51.472;5.712;2023-04-15T21:56:03;3.47;;;1.77;;
42104;SDS011;68365;51.472;5.712;2023-04-15T21:58:32;3.80;;;1.80;;
42104;SDS011;68365;51.472;5.712;2023-04-15T22:00:58;3.78;;;1.95;;
42104;SDS011;68365;51.472;5.712;2023-04-15T22:03:27;4.45;;;1.85;;
42104;SDS011;68365;51.472;5.712;2023-04-15T22:05:58;2.13;;;1.60;;
42104;SDS011;68365;51.472;5.712;2023-04-15T22:08:25;4.50;;;1.75;;
42104;SDS011;68365;51.472;5.712;2023-04-15T22:10:51;3.85;;;2.00;;
42104;SDS011;68365;51.472;5.712;2023-04-15T22:13:17;3.20;;;1.90;;
42104;SDS011;68365;51.472;5.712;2023-04-15T22:15:42;4.05;;;2.13;;
42104;SDS011;68365;51.472;5.712;2023-04-15T22:18:09;4.07;;;1.90;;
42104;SDS011;68365;51.472;5.712;2023-04-15T22:20:37;7.20;;;2.65;;
42104;SDS011;68365;51.472;5.712;2023-04-15T22:23:03;5.32;;;1.92;;
42104;SDS011;68365;51.472;5.712;2023-04-15T22:25:32;2.90;;;1.90;;
42104;SDS011;68365;51.472;5.712;2023-04-15T22:28:01;4.10;;;1.83;;
42104;SDS011;68365;51.472;5.712;2023-04-15T22:30:32;5.93;;;1.70;;
42104;SDS011;68365;51.472;5.712;2023-04-15T22:33:04;3.55;;;1.90;;
42104;SDS011;68365;51.472;5.712;2023-04-15T22:37:42;7.35;;;1.95;;
42104;SDS011;68365;51.472;5.712;2023-04-15T22:40:11;9.00;;;2.13;;
42104;SDS011;68365;51.472;5.712;2023-04-15T22:42:44;4.43;;;1.67;;
42104;SDS011;68365;51.472;5.712;2023-04-15T22:45:10;4.22;;;1.80;;
42104;SDS011;68365;51.472;5.712;2023-04-15T22:47:36;3.47;;;1.52;;
42104;SDS011;68365;51.472;5.712;2023-04-15T22:50:02;4.30;;;2.13;;
42104;SDS011;68365;51.472;5.712;2023-04-15T22:52:28;7.45;;;1.80;;
42104;SDS011;68365;51.472;5.712;2023-04-15T22:54:54;5.60;;;1.92;;
42104;SDS011;68365;51.472;5.712;2023-04-15T22:57:20;7.85;;;1.75;;
42104;SDS011;68365;51.472;5.712;2023-04-15T22:59:46;5.43;;;1.95;;
42104;SDS011;68365;51.472;5.712;2023-04-15T23:02:11;6.10;;;1.67;;
42104;SDS011;68365;51.472;5.712;2023-04-15T23:04:37;6.47;;;2.20;;
42104;SDS011;68365;51.472;5.712;2023-04-15T23:07:03;5.03;;;1.80;;
42104;SDS011;68365;51.472;5.712;2023-04-15T23:09:29;6.30;;;1.90;;
42104;SDS011;68365;51.472;5.712;2023-04-15T23:11:57;4.53;;;1.77;;
42104;SDS011;68365;51.472;5.712;2023-04-15T23:14:23;5.53;;;2.03;;
42104;SDS011;68365;51.472;5.712;2023-04-15T23:16:51;4.97;;;1.80;;
42104;SDS011;68365;51.472;5.712;2023-04-15T23:19:18;5.40;;;1.77;;
42104;SDS011;68365;51.472;5.712;2023-04-15T23:21:53;4.72;;;1.60;;